Time;durP1;ratioP1;P1;durP2;ratioP2;P2;SDS_P1;SDS_P2;PMS_P1;PMS_P2;Temp;Humidity;BMP_temperature;BMP_pressure;BME280_temperature;BME280_humidity;BME280_pressure;Samples;Min_cycle;Max_cycle;Signal;HPM_P1;HPM_P2
2022/03/02 00:02:28;;;;;;;14.18;9.90;;;;;;;1.68;41.41;100190.53;5086828;28;20064;-65
2022/03/02 00:05:01;;;;;;;12.25;8.88;;;;;;;1.65;41.30;100185.31;5086811;28;20056;-66
2022/03/02 00:07:33;;;;;;;16.75;10.27;;;;;;;1.64;41.36;100189.66;5086568;28;20036;-66
2022/03/02 00:10:07;;;;;;;15.50;10.80;;;;;;;1.63;41.50;100187.06;5086602;28;20052;-65
2022/03/02 00:12:39;;;;;;;15.73;9.60;;;;;;;1.54;42.04;100180.97;5086490;28;20227;-65
2022/03/02 00:15:11;;;;;;;14.73;9.95;;;;;;;1.55;41.74;100189.69;5086727;28;20045;-65
2022/03/02 00:17:42;;;;;;;15.80;10.43;;;;;;;1.58;41.52;100187.06;5086416;28;20051;-66
2022/03/02 00:20:12;;;;;;;16.10;9.73;;;;;;;1.58;41.48;100181.84;5086384;28;20115;-65
2022/03/02 00:22:42;;;;;;;17.92;11.15;;;;;;;1.56;41.64;100176.63;5086285;28;20047;-65
2022/03/02 00:25:14;;;;;;;15.85;10.30;;;;;;;1.53;41.83;100174.03;5086248;28;20211;-65
2022/03/02 00:27:43;;;;;;;15.77;10.60;;;;;;;1.49;42.14;100179.28;5086160;28;20036;-65
2022/03/02 00:30:13;;;;;;;18.77;12.02;;;;;;;1.49;42.10;100180.13;5086172;28;20040;-65
2022/03/02 00:32:43;;;;;;;15.52;9.40;;;;;;;1.16;41.91;100122.84;5086434;28;20047;-65
2022/03/02 00:35:16;;;;;;;16.45;9.25;;;;;;;1.46;42.75;100168.84;5086385;28;20040;-65
2022/03/02 00:37:46;;;;;;;15.85;10.55;;;;;;;1.45;42.37;100169.72;5086316;28;20051;-65
2022/03/02 00:40:17;;;;;;;15.10;10.80;;;;;;;1.44;42.85;100173.19;5086853;28;20107;-65
2022/03/02 00:42:46;;;;;;;12.98;8.88;;;;;;;1.39;42.77;100165.38;5085960;28;20044;-64
2022/03/02 00:45:17;;;;;;;14.52;8.77;;;;;;;0.98;42.40;100092.47;5085880;28;20048;-64
2022/03/02 00:47:48;;;;;;;13.77;10.65;;;;;;;1.36;42.75;100161.94;5085861;28;20204;-64
2022/03/02 00:50:17;;;;;;;15.82;11.70;;;;;;;1.28;43.10;100161.09;5086126;28;20099;-65
2022/03/02 00:52:48;;;;;;;15.15;9.90;;;;;;;0.88;43.07;100096.88;5085767;28;20051;-65
2022/03/02 00:55:19;;;;;;;22.23;10.55;;;;;;;1.25;42.83;100155.00;5086095;28;20036;-65
2022/03/02 00:57:48;;;;;;;17.17;12.02;;;;;;;1.26;43.13;100151.53;5085207;28;20058;-66
2022/03/02 01:00:19;;;;;;;13.02;9.93;;;;;;;1.22;43.01;100180.28;5091050;28;20040;-65
2022/03/02 01:02:49;;;;;;;16.33;11.60;;;;;;;1.21;43.13;100152.41;5087458;28;20056;-66
2022/03/02 01:05:19;;;;;;;16.10;10.68;;;;;;;1.21;42.95;100149.81;5087747;28;20036;-65
2022/03/02 01:07:49;;;;;;;15.40;9.95;;;;;;;1.19;43.13;100154.16;5091042;28;20047;-65
2022/03/02 01:10:21;;;;;;;13.30;9.88;;;;;;;1.16;44.04;100152.44;5087523;28;20051;-65
2022/03/02 01:12:49;;;;;;;15.00;10.43;;;;;;;1.16;43.16;100147.22;5087266;28;20044;-65
2022/03/02 01:15:20;;;;;;;18.20;10.90;;;;;;;1.13;44.27;100146.38;5086330;28;20047;-65
2022/03/02 01:17:50;;;;;;;17.52;9.98;;;;;;;1.21;43.31;100145.47;5086029;28;20040;-65
2022/03/02 01:20:21;;;;;;;17.52;9.30;;;;;;;1.24;43.59;100150.66;5086344;28;20044;-65
2022/03/02 01:22:51;;;;;;;16.52;10.43;;;;;;;1.29;43.18;100150.63;5086091;28;20071;-64
2022/03/02 01:25:23;;;;;;;14.55;10.60;;;;;;;1.32;43.20;100141.91;5085605;28;20047;-65
2022/03/02 01:27:51;;;;;;;15.85;11.25;;;;;;;1.36;43.22;100138.41;5085648;28;20040;-64
2022/03/02 01:30:22;;;;;;;15.10;9.70;;;;;;;1.37;43.14;100146.25;5085402;28;20056;-64
2022/03/02 01:32:52;;;;;;;13.55;9.40;;;;;;;1.36;43.07;100147.13;5085774;28;20036;-64
2022/03/02 01:35:22;;;;;;;16.83;10.70;;;;;;;1.38;43.30;100142.75;5068246;28;20036;-64
2022/03/02 01:37:52;;;;;;;14.80;10.23;;;;;;;1.01;42.92;100076.81;5085586;28;20346;-65
2022/03/02 01:40:24;;;;;;;15.35;10.73;;;;;;;1.32;43.64;100139.31;5085775;28;20095;-65
2022/03/02 01:42:53;;;;;;;15.13;9.35;;;;;;;1.38;43.13;100128.84;5085677;28;20040;-65
2022/03/02 01:45:23;;;;;;;17.02;9.82;;;;;;;1.37;43.41;100125.34;5085380;28;20181;-65
2022/03/02 01:47:53;;;;;;;18.27;12.07;;;;;;;1.37;43.15;100135.78;5085606;28;20040;-65
2022/03/02 01:50:24;;;;;;;16.77;10.68;;;;;;;1.32;43.55;100124.50;5087538;28;20041;-65
2022/03/02 01:52:55;;;;;;;16.30;11.05;;;;;;;1.31;43.37;100124.53;5089299;28;20063;-64
2022/03/02 01:55:26;;;;;;;18.20;12.25;;;;;;;1.19;43.25;100105.44;5089226;28;20040;-65
2022/03/02 01:57:57;;;;;;;16.08;10.00;;;;;;;1.26;43.65;100122.81;5089277;28;20079;-65
2022/03/02 02:00:27;;;;;;;16.88;10.85;;;;;;;1.26;43.48;100114.97;5089357;28;20247;-66
2022/03/02 02:02:58;;;;;;;16.48;11.15;;;;;;;0.90;43.69;100055.13;5088963;28;20052;-65
2022/03/02 02:05:28;;;;;;;18.23;11.45;;;;;;;0.90;44.01;100055.97;5088914;28;20157;-65
2022/03/02 02:07:58;;;;;;;17.48;10.93;;;;;;;1.26;43.37;100114.09;5089229;28;20280;-65
2022/03/02 02:10:30;;;;;;;14.18;9.52;;;;;;;1.24;44.08;100111.50;5088294;28;20082;-66
2022/03/02 02:12:59;;;;;;;13.05;9.10;;;;;;;1.29;43.29;100108.00;5089086;28;20103;-65
2022/03/02 02:15:29;;;;;;;16.13;10.77;;;;;;;0.53;43.54;100012.66;5089101;28;20123;-65
2022/03/02 02:17:59;;;;;;;17.15;10.68;;;;;;;1.22;43.53;100112.38;5089017;28;20208;-66
2022/03/02 02:20:39;;;;;;;15.98;10.77;;;;;;;1.19;44.76;100107.16;5088877;28;20048;-66
2022/03/02 02:23:11;;;;;;;13.80;10.25;;;;;;;1.13;43.94;100101.97;5088912;28;20247;-65
2022/03/02 02:25:43;;;;;;;18.08;10.85;;;;;;;1.13;43.45;100102.84;5089021;28;20086;-65
2022/03/02 02:28:25;;;;;;;14.90;11.02;;;;;;;1.10;44.66;100181.19;5088644;28;20086;-65
2022/03/02 02:31:06;;;;;;;16.75;10.68;;;;;;;1.09;44.25;100098.53;5088521;28;20083;-65
2022/03/02 02:33:39;;;;;;;14.90;10.27;;;;;;;1.05;44.39;100099.41;5088903;28;20045;-65
2022/03/02 02:36:13;;;;;;;15.88;10.18;;;;;;;1.02;44.31;100091.59;5088610;28;20040;-64
2022/03/02 02:38:48;;;;;;;15.32;10.20;;;;;;;1.01;44.56;100094.22;5088873;28;20086;-65
2022/03/02 02:41:20;;;;;;;18.95;10.00;;;;;;;1.03;43.96;100095.94;5088795;28;20044;-65
2022/03/02 02:43:53;;;;;;;19.73;10.95;;;;;;;1.05;44.09;100094.19;5088746;28;20169;-65
2022/03/02 02:46:25;;;;;;;15.02;9.95;;;;;;;0.78;43.73;100037.78;5088696;28;20045;-65
2022/03/02 02:48:57;;;;;;;15.05;9.73;;;;;;;1.09;43.72;100087.22;5088355;28;20045;-64
2022/03/02 02:51:30;;;;;;;14.35;10.57;;;;;;;1.02;44.19;100083.75;5088498;28;20247;-64
2022/03/02 02:54:03;;;;;;;11.93;10.18;;;;;;;0.99;44.09;100078.56;5088604;28;20048;-65
2022/03/02 02:56:36;;;;;;;14.27;10.18;;;;;;;0.97;44.11;100077.69;5088254;28;20082;-66
2022/03/02 02:59:08;;;;;;;14.40;9.60;;;;;;;0.62;43.91;100017.84;5070901;28;20104;-65
2022/03/02 03:01:40;;;;;;;16.55;9.55;;;;;;;0.98;43.99;100079.44;5087019;28;20094;-65
2022/03/02 03:04:14;;;;;;;15.40;9.88;;;;;;;0.94;44.04;100073.38;5071487;28;20048;-64
2022/03/02 03:06:50;;;;;;;15.82;10.07;;;;;;;0.32;43.95;99964.06;5087940;28;20044;-65
2022/03/02 03:09:22;;;;;;;15.43;10.57;;;;;;;0.59;44.47;100018.72;5088229;28;20048;-65
2022/03/02 03:11:55;;;;;;;16.40;11.32;;;;;;;0.92;44.38;100072.50;5088247;28;20037;-65
2022/03/02 03:14:27;;;;;;;14.15;10.85;;;;;;;0.98;43.95;100079.44;5087778;28;20048;-65
2022/03/02 03:16:59;;;;;;;14.13;9.50;;;;;;;0.91;43.91;100068.16;5087848;28;20082;-65
2022/03/02 03:19:32;;;;;;;16.20;9.82;;;;;;;0.91;43.83;100068.16;5087575;28;20091;-65
2022/03/02 03:22:07;;;;;;;16.92;10.30;;;;;;;0.89;44.45;100069.03;5087525;28;20045;-65
2022/03/02 03:24:39;;;;;;;14.48;9.98;;;;;;;0.53;43.82;100000.50;5087710;28;20044;-65
2022/03/02 03:27:12;;;;;;;14.30;9.77;;;;;;;0.86;44.20;100056.00;5087674;28;20090;-64
2022/03/02 03:29:44;;;;;;;14.52;8.10;;;;;;;0.49;44.06;100003.13;5087547;28;20044;-65
2022/03/02 03:32:16;;;;;;;20.13;10.57;;;;;;;0.50;43.79;100000.50;5087435;28;20242;-65
2022/03/02 03:34:48;;;;;;;15.73;9.02;;;;;;;0.82;44.16;100059.50;5087725;28;20040;-65
2022/03/02 03:37:22;;;;;;;13.63;8.82;;;;;;;0.83;43.86;100056.03;5087168;28;20227;-66
2022/03/02 03:39:54;;;;;;;13.20;8.75;;;;;;;0.85;43.97;100060.34;5087186;28;20047;-64
2022/03/02 03:42:27;;;;;;;15.63;9.57;;;;;;;0.45;44.21;100001.41;5087159;28;20044;-66
2022/03/02 03:44:59;;;;;;;16.35;9.35;;;;;;;0.74;44.42;100059.53;5087512;28;20040;-65
2022/03/02 03:47:32;;;;;;;16.33;9.23;;;;;;;0.76;44.15;100056.91;5087031;28;20048;-65
2022/03/02 03:50:05;;;;;;;14.13;10.00;;;;;;;0.75;44.39;100060.41;5086858;28;20271;-64
2022/03/02 03:52:39;;;;;;;13.18;9.07;;;;;;;0.42;44.86;99999.66;5086863;28;20044;-64
2022/03/02 03:55:13;;;;;;;13.35;9.25;;;;;;;0.71;44.58;100064.75;5069796;28;20062;-64
2022/03/02 03:57:45;;;;;;;16.95;9.02;;;;;;;0.70;44.91;100054.34;5086979;28;20040;-64
2022/03/02 04:00:19;;;;;;;16.00;10.13;;;;;;;0.71;44.24;100061.28;5087180;28;20292;-65
2022/03/02 04:02:51;;;;;;;19.02;9.57;;;;;;;0.75;44.47;100061.28;5086772;28;20060;-65
2022/03/02 04:05:23;;;;;;;12.45;9.30;;;;;;;0.72;44.30;100063.03;5086932;28;20063;-65
2022/03/02 04:08:02;;;;;;;15.38;9.68;;;;;;;0.72;44.85;100071.72;5087009;28;20040;-65
2022/03/02 04:10:34;;;;;;;13.38;8.40;;;;;;;0.38;44.56;100002.28;5086596;28;20100;-65
2022/03/02 04:13:08;;;;;;;13.27;8.52;;;;;;;0.73;44.52;100068.25;5086361;28;20044;-65
2022/03/02 04:15:38;;;;;;;20.73;10.05;;;;;;;0.68;44.58;100063.91;5086496;28;20041;-65
2022/03/02 04:18:08;;;;;;;16.77;10.30;;;;;;;0.36;44.39;100009.25;5086524;28;20040;-65
2022/03/02 04:20:37;;;;;;;12.70;9.80;;;;;;;0.70;44.41;100055.19;5086750;28;20200;-65
2022/03/02 04:23:09;;;;;;;17.98;11.60;;;;;;;-0.15;44.13;99970.31;5086648;28;20036;-65
2022/03/02 04:25:39;;;;;;;13.43;9.45;;;;;;;0.33;44.88;99996.22;5086571;28;20040;-65
2022/03/02 04:28:08;;;;;;;15.43;10.43;;;;;;;0.60;44.87;100051.75;5086464;28;20040;-64
2022/03/02 04:30:39;;;;;;;14.50;9.05;;;;;;;0.31;44.41;99995.38;5086327;28;20102;-65
2022/03/02 04:33:09;;;;;;;16.45;10.68;;;;;;;0.58;44.70;100043.06;5086162;28;20041;-65
2022/03/02 04:35:40;;;;;;;18.15;11.45;;;;;;;0.56;44.92;100046.56;5085437;28;20044;-65
2022/03/02 04:38:11;;;;;;;15.88;10.55;;;;;;;0.57;44.37;100043.09;5086549;28;20296;-65
2022/03/02 04:40:40;;;;;;;14.35;9.27;;;;;;;0.57;44.56;100049.16;5086101;28;20083;-64
2022/03/02 04:43:10;;;;;;;14.95;9.27;;;;;;;0.53;44.72;100044.84;5086151;28;20040;-64
2022/03/02 04:45:40;;;;;;;13.77;10.15;;;;;;;0.55;44.26;100050.91;5068674;28;20086;-64
2022/03/02 04:48:11;;;;;;;16.55;10.02;;;;;;;0.22;44.74;99983.22;5086290;28;20056;-65
2022/03/02 04:50:41;;;;;;;13.60;9.82;;;;;;;0.20;44.65;99982.38;5086244;28;20090;-65
2022/03/02 04:53:15;;;;;;;17.70;10.13;;;;;;;0.52;44.66;100042.22;5087426;28;20045;-66
2022/03/02 04:55:46;;;;;;;15.05;10.07;;;;;;;0.44;44.97;100033.56;5086437;28;20041;-65
2022/03/02 04:58:16;;;;;;;16.23;11.10;;;;;;;0.16;44.88;99985.88;5068844;28;20086;-65
2022/03/02 05:00:46;;;;;;;15.27;9.23;;;;;;;0.43;44.89;100040.53;5086577;28;20036;-65
2022/03/02 05:03:17;;;;;;;16.25;11.20;;;;;;;0.40;44.83;100040.53;5085760;28;20064;-65
2022/03/02 05:05:47;;;;;;;14.63;10.45;;;;;;;0.05;44.81;99982.41;5086383;28;20037;-65
2022/03/02 05:08:18;;;;;;;14.48;9.52;;;;;;;0.39;45.32;100043.16;5088124;28;20048;-65
2022/03/02 05:10:47;;;;;;;13.63;10.30;;;;;;;0.38;44.82;100038.81;5090527;28;20074;-65
2022/03/02 05:13:17;;;;;;;17.52;9.52;;;;;;;0.08;44.75;99983.28;5086868;28;20063;-65
2022/03/02 05:15:47;;;;;;;15.55;9.57;;;;;;;0.39;45.18;100038.81;5089545;28;20048;-65
2022/03/02 05:18:17;;;;;;;16.80;11.20;;;;;;;0.41;44.98;100033.56;5088035;28;20044;-65
2022/03/02 05:20:48;;;;;;;16.02;9.20;;;;;;;0.41;44.53;100028.38;5086776;28;20048;-65
2022/03/02 05:23:19;;;;;;;16.00;9.40;;;;;;;0.27;44.94;100008.41;5086095;28;20044;-65
2022/03/02 05:25:48;;;;;;;13.20;10.32;;;;;;;0.13;44.74;99994.56;5085561;28;20043;-64
2022/03/02 05:28:18;;;;;;;12.07;8.68;;;;;;;-0.46;44.94;99893.97;5085704;28;20048;-65
2022/03/02 05:30:48;;;;;;;13.18;8.70;;;;;;;-0.06;44.74;99962.47;5085615;28;20036;-64
2022/03/02 05:33:18;;;;;;;11.60;9.45;;;;;;;0.28;44.80;100032.75;5085724;28;20119;-65
2022/03/02 05:35:48;;;;;;;16.67;10.00;;;;;;;0.22;44.89;100031.03;5085651;28;20045;-65
2022/03/02 05:38:20;;;;;;;12.55;9.07;;;;;;;0.16;45.41;100027.56;5084884;28;20040;-65
2022/03/02 05:40:49;;;;;;;16.23;10.35;;;;;;;0.10;45.25;100032.78;5085823;28;20052;-64
2022/03/02 05:43:18;;;;;;;15.20;10.65;;;;;;;0.10;45.20;100028.44;5085317;28;20040;-64
2022/03/02 05:45:49;;;;;;;18.08;11.25;;;;;;;0.08;45.35;100031.94;5085504;28;20036;-64
2022/03/02 05:48:19;;;;;;;15.20;10.00;;;;;;;-0.38;45.33;99959.06;5085884;28;20100;-64
2022/03/02 05:50:49;;;;;;;16.23;10.05;;;;;;;0.03;45.70;100037.16;5067544;28;20074;-65
2022/03/02 05:53:21;;;;;;;14.15;9.82;;;;;;;0.05;45.42;100042.38;5084605;28;20044;-65
2022/03/02 05:55:49;;;;;;;18.30;10.48;;;;;;;-0.26;45.03;99981.63;5085932;28;20079;-64
2022/03/02 05:58:19;;;;;;;15.85;9.45;;;;;;;0.05;45.14;100038.03;5085452;28;20060;-64
2022/03/02 06:00:50;;;;;;;14.63;9.98;;;;;;;0.10;44.97;100038.00;5085773;28;20040;-64
2022/03/02 06:03:20;;;;;;;12.38;8.05;;;;;;;0.17;45.33;100051.03;5085093;28;20060;-64
2022/03/02 06:05:50;;;;;;;14.18;9.57;;;;;;;0.23;44.80;100031.91;5085230;28;20047;-64
2022/03/02 06:08:21;;;;;;;15.38;11.32;;;;;;;-0.13;45.00;99972.91;5085172;28;20063;-64
2022/03/02 06:10:51;;;;;;;20.88;12.02;;;;;;;-1.05;44.73;99834.16;5067567;28;20048;-64
2022/03/02 06:13:21;;;;;;;35.40;12.23;;;;;;;0.25;44.71;100036.22;5085301;28;20102;-64
2022/03/02 06:15:50;;;;;;;15.13;9.65;;;;;;;0.26;44.77;100034.50;5085253;28;20187;-64
2022/03/02 06:18:21;;;;;;;14.75;9.05;;;;;;;-0.04;44.83;100010.25;5084888;28;20206;-64
2022/03/02 06:20:52;;;;;;;15.07;8.93;;;;;;;0.25;45.24;100027.53;5085109;28;20285;-64
2022/03/02 06:23:23;;;;;;;14.73;10.32;;;;;;;0.26;44.86;100031.88;5067377;28;20380;-64
2022/03/02 06:25:51;;;;;;;24.75;12.68;;;;;;;0.25;44.81;100031.03;5084970;28;20057;-64
2022/03/02 06:28:21;;;;;;;13.73;9.55;;;;;;;-0.08;44.81;99974.63;5085388;28;20066;-64
2022/03/02 06:30:51;;;;;;;15.90;11.48;;;;;;;0.25;44.80;100036.22;5085081;28;20036;-65
2022/03/02 06:33:22;;;;;;;15.25;10.10;;;;;;;-0.07;44.71;100025.88;5084878;28;20047;-66
2022/03/02 06:35:51;;;;;;;15.93;10.32;;;;;;;0.28;44.81;100025.78;5087273;28;20025;-65
2022/03/02 06:38:24;;;;;;;36.25;13.10;;;;;;;-0.06;45.27;99978.09;5088262;28;20040;-66
2022/03/02 06:41:00;;;;;;;14.93;8.65;;;;;;;0.01;45.18;99981.56;5088134;28;20045;-65
2022/03/02 06:43:34;;;;;;;16.88;10.68;;;;;;;-0.98;44.79;99889.69;5088206;28;20041;-65
2022/03/02 06:46:11;;;;;;;16.08;10.65;;;;;;;0.34;44.84;100030.13;5088573;28;20079;-65
2022/03/02 06:48:51;;;;;;;15.10;10.00;;;;;;;0.33;45.35;100031.00;5088161;28;20040;-65
2022/03/02 06:51:26;;;;;;;17.05;9.63;;;;;;;0.38;44.87;100028.38;5087965;28;20041;-65
2022/03/02 06:54:05;;;;;;;19.98;11.68;;;;;;;0.42;45.06;100024.88;5088032;28;20045;-65
2022/03/02 06:56:49;;;;;;;14.85;10.38;;;;;;;0.20;45.21;99964.13;5088257;28;20048;-65
2022/03/02 06:59:30;;;;;;;17.57;11.77;;;;;;;0.70;45.11;100033.47;5087993;28;20049;-65
2022/03/02 07:02:05;;;;;;;15.10;8.50;;;;;;;0.87;44.27;100022.06;5088017;28;20060;-65
2022/03/02 07:04:40;;;;;;;14.88;9.45;;;;;;;1.10;43.54;100021.06;5088198;28;20062;-66
2022/03/02 07:07:12;;;;;;;13.30;10.05;;;;;;;1.28;43.49;100018.34;5088185;28;20102;-65
2022/03/02 07:09:47;;;;;;;14.50;9.10;;;;;;;1.48;43.30;100012.97;5087815;28;20082;-65
2022/03/02 07:12:21;;;;;;;18.90;10.00;;;;;;;1.70;42.41;100004.09;5087673;28;20082;-65
2022/03/02 07:14:54;;;;;;;13.00;9.45;;;;;;;1.92;42.02;100011.72;5087912;28;20216;-65
2022/03/02 07:17:28;;;;;;;14.45;9.02;;;;;;;0.26;41.69;99691.22;5087578;28;20040;-66
2022/03/02 07:20:01;;;;;;;13.23;8.40;;;;;;;2.29;41.43;100006.97;5087660;28;20040;-65
2022/03/02 07:22:36;;;;;;;13.52;8.73;;;;;;;1.14;41.15;99856.56;5087840;28;20052;-64
2022/03/02 07:25:16;;;;;;;12.90;7.88;;;;;;;2.67;40.97;100004.78;5070034;28;20275;-65
2022/03/02 07:27:50;;;;;;;18.08;10.35;;;;;;;2.88;40.43;100006.25;5087441;28;20328;-65
2022/03/02 07:30:23;;;;;;;17.77;9.60;;;;;;;3.08;40.27;100003.34;5087667;28;20040;-65
2022/03/02 07:32:57;;;;;;;17.20;9.40;;;;;;;2.26;39.83;99866.66;5087252;28;20293;-65
2022/03/02 07:35:32;;;;;;;15.80;10.40;;;;;;;3.44;39.67;100008.03;5087543;28;20090;-65
2022/03/02 07:38:05;;;;;;;15.50;9.93;;;;;;;1.76;39.62;99684.34;5087251;28;20247;-66
2022/03/02 07:40:38;;;;;;;11.88;7.90;;;;;;;3.84;39.11;99991.63;5087224;28;20090;-66
2022/03/02 07:43:11;;;;;;;12.32;8.35;;;;;;;4.06;38.83;99994.72;5087054;28;20350;-64
2022/03/02 07:45:43;;;;;;;14.93;9.07;;;;;;;4.25;38.52;99990.03;5087177;28;20040;-64
2022/03/02 07:48:14;;;;;;;12.88;9.25;;;;;;;4.12;38.05;99934.28;5086615;28;20103;-65
2022/03/02 07:50:43;;;;;;;14.90;8.98;;;;;;;4.65;38.07;99983.06;5069310;28;20042;-64
2022/03/02 07:53:16;;;;;;;14.90;9.07;;;;;;;4.81;37.64;99978.34;5087201;28;20067;-64
2022/03/02 07:55:54;;;;;;;13.52;7.72;;;;;;;5.01;37.09;99973.56;5087041;28;20040;-64
2022/03/02 07:58:28;;;;;;;19.38;10.45;;;;;;;5.13;36.65;99970.63;5086968;28;20101;-64
2022/03/02 08:01:03;;;;;;;13.70;9.30;;;;;;;5.32;36.70;99964.94;5086797;28;20040;-64
2022/03/02 08:03:38;;;;;;;11.85;7.85;;;;;;;4.33;36.60;99794.78;5086550;28;20450;-64
2022/03/02 08:06:11;;;;;;;;;;;;;;;5.65;34.47;99968.50;5087163;28;20040;-64
2022/03/02 08:08:43;;;;;;;15.93;9.15;;;;;;;5.80;35.88;99969.88;5086806;28;20114;-64
2022/03/02 08:11:17;;;;;;;13.63;8.00;;;;;;;5.83;35.82;99922.47;5069942;28;20243;-64
2022/03/02 08:13:51;;;;;;;11.90;7.68;;;;;;;6.32;35.78;99959.66;5070305;28;20044;-64
2022/03/02 08:16:23;;;;;;;12.55;7.75;;;;;;;3.80;35.36;99494.44;5068826;28;20059;-65
2022/03/02 08:18:56;;;;;;;12.82;8.75;;;;;;;6.28;35.25;99902.75;5086471;28;20295;-64
2022/03/02 08:21:31;;;;;;;12.52;8.77;;;;;;;6.75;35.15;99959.28;5086664;28;20040;-65
2022/03/02 08:24:06;;;;;;;12.50;8.02;;;;;;;6.90;34.74;99949.22;5086528;28;20048;-64
2022/03/02 08:26:41;;;;;;;13.13;8.23;;;;;;;6.79;33.66;99906.50;5086245;28;20044;-66
2022/03/02 08:29:13;;;;;;;13.10;9.15;;;;;;;7.30;33.54;99936.50;5069029;28;20307;-64
2022/03/02 08:31:46;;;;;;;9.95;7.38;;;;;;;7.42;33.60;99945.81;5086188;28;20223;-64
2022/03/02 08:34:19;;;;;;;25.23;8.60;;;;;;;7.47;32.84;99943.91;5086315;28;20045;-64
2022/03/02 08:36:54;;;;;;;11.80;8.40;;;;;;;7.52;31.92;99939.31;5086170;28;20219;-64
2022/03/02 08:39:26;;;;;;;;;;;;;;;7.63;30.82;99937.19;5086588;28;20036;-64
2022/03/02 08:42:00;;;;;;;11.30;7.90;;;;;;;7.76;32.88;99936.78;5085971;28;20172;-64
2022/03/02 08:44:32;;;;;;;10.15;7.93;;;;;;;7.98;32.66;99925.41;5086002;28;20100;-65
2022/03/02 08:47:05;;;;;;;9.32;6.20;;;;;;;8.07;32.76;99928.63;5068477;28;20040;-64
2022/03/02 08:49:37;;;;;;;10.45;7.32;;;;;;;8.04;32.93;99921.69;5086008;28;20086;-64
2022/03/02 08:52:11;;;;;;;9.23;6.32;;;;;;;8.24;32.35;99918.34;5086051;28;20049;-64
2022/03/02 08:54:47;;;;;;;11.07;7.18;;;;;;;8.32;31.80;99906.56;5085754;28;20216;-65
2022/03/02 08:57:21;;;;;;;11.35;7.15;;;;;;;8.35;31.56;99906.44;5085964;28;20200;-65
2022/03/02 08:59:54;;;;;;;10.88;7.00;;;;;;;8.40;32.14;99903.63;5085053;28;20185;-65
2022/03/02 09:02:30;;;;;;;10.93;7.28;;;;;;;8.57;31.76;99885.38;5086129;28;20106;-65
2022/03/02 09:05:05;;;;;;;12.18;7.18;;;;;;;8.41;30.67;99844.59;5085960;28;20047;-65
2022/03/02 09:07:37;;;;;;;11.98;8.20;;;;;;;8.72;31.97;99883.03;5068561;28;20052;-65
2022/03/02 09:10:10;;;;;;;12.15;7.97;;;;;;;8.83;31.69;99879.06;5085901;28;20082;-65
2022/03/02 09:12:44;;;;;;;11.68;7.63;;;;;;;8.97;30.99;99874.09;5085896;28;20086;-65
2022/03/02 09:15:16;;;;;;;12.02;8.48;;;;;;;8.03;31.13;99693.81;5085662;28;20040;-66
2022/03/02 09:17:49;;;;;;;10.68;7.13;;;;;;;9.26;30.37;99875.56;5085802;28;20053;-66
2022/03/02 09:20:22;;;;;;;10.13;6.85;;;;;;;9.29;30.94;99866.66;5085711;28;20044;-65
2022/03/02 09:22:55;;;;;;;10.45;7.18;;;;;;;9.07;28.69;99860.50;5085359;28;20040;-66
2022/03/02 09:25:30;;;;;;;10.43;7.05;;;;;;;9.14;29.86;99865.47;5085632;28;20086;-66
2022/03/02 09:28:03;;;;;;;;;;;;;;;9.22;27.94;99860.75;5085855;28;20037;-66
2022/03/02 09:30:36;;;;;;;11.07;6.80;;;;;;;8.63;30.81;99744.22;5085608;28;19916;-66
2022/03/02 09:33:15;;;;;;;11.75;7.22;;;;;;;9.43;29.29;99869.59;5085422;28;20288;-66
2022/03/02 09:35:47;;;;;;;10.60;7.43;;;;;;;9.27;29.59;99811.16;5085591;28;20049;-66
2022/03/02 09:38:20;;;;;;;14.65;9.00;;;;;;;9.59;29.24;99848.63;5085225;28;20112;-66
2022/03/02 09:40:51;;;;;;;11.50;7.75;;;;;;;9.62;29.43;99853.81;5085004;28;20064;-66
2022/03/02 09:43:26;;;;;;;11.05;7.38;;;;;;;9.36;29.04;99801.13;5067918;28;20060;-65
2022/03/02 09:46:03;;;;;;;12.27;7.88;;;;;;;9.77;28.98;99855.78;5085203;28;20041;-65
2022/03/02 09:48:41;;;;;;;11.80;6.50;;;;;;;9.90;29.31;99853.44;5085134;28;20040;-66
2022/03/02 09:51:22;;;;;;;11.48;7.15;;;;;;;9.99;28.39;99849.53;5067729;28;20044;-66
2022/03/02 09:53:55;;;;;;;14.52;8.23;;;;;;;10.11;29.68;99848.97;5084845;28;20050;-66
2022/03/02 09:56:31;;;;;;;11.73;7.85;;;;;;;10.21;28.26;99842.31;5084961;28;20044;-66
2022/03/02 09:59:07;;;;;;;9.30;5.70;;;;;;;10.29;28.04;99845.47;5085213;28;20044;-66
2022/03/02 10:01:41;;;;;;;12.15;6.93;;;;;;;9.23;28.25;99673.84;5084880;28;20086;-66
2022/03/02 10:04:21;;;;;;;8.80;6.35;;;;;;;10.42;29.18;99843.97;5085136;28;20048;-66
2022/03/02 10:07:26;;;;;;;12.02;7.68;;;;;;;10.43;27.83;99828.94;5084917;28;20090;-66
2022/03/02 10:09:52;;;;;;;11.75;7.93;;;;;;;10.31;28.88;99835.69;5085217;28;20231;-65
2022/03/02 10:12:26;;;;;;;11.18;7.55;;;;;;;10.36;29.27;99836.31;5071496;28;20044;-65
2022/03/02 10:15:01;;;;;;;12.55;7.10;;;;;;;10.42;28.49;99836.03;5088438;28;20044;-67
2022/03/02 10:17:35;;;;;;;9.98;7.40;;;;;;;10.66;29.05;99828.72;5088256;28;20041;-65
2022/03/02 10:20:10;;;;;;;12.57;7.80;;;;;;;10.75;28.16;99827.41;5088684;28;20045;-65
2022/03/02 10:23:08;;;;;;;13.68;9.18;;;;;;;10.68;26.61;99818.91;5088404;28;20390;-65
2022/03/02 10:25:52;;;;;;;13.30;8.05;;;;;;;10.75;27.02;99820.31;5088722;28;20056;-64
2022/03/02 10:28:27;;;;;;;13.95;8.68;;;;;;;10.41;27.82;99761.91;5070987;28;20193;-65
2022/03/02 10:31:32;;;;;;;11.10;6.93;;;;;;;10.68;27.47;99810.09;5088344;28;20040;-64
2022/03/02 10:34:18;;;;;;;9.90;7.15;;;;;;;10.84;29.18;99811.94;5086027;28;20074;-65
2022/03/02 10:37:03;;;;;;;13.73;8.85;;;;;;;10.78;27.90;99806.94;5070645;28;20066;-65
2022/03/02 10:39:50;;;;;;;13.00;8.35;;;;;;;10.54;27.87;99750.66;5088059;28;20086;-64
2022/03/02 10:42:25;;;;;;;13.63;9.48;;;;;;;10.79;28.58;99800.72;5088196;28;20044;-65
2022/03/02 10:45:12;;;;;;;11.65;7.90;;;;;;;10.93;27.91;99793.88;5088109;28;20040;-64
2022/03/02 10:47:55;;;;;;;14.55;9.38;;;;;;;11.12;27.60;99795.53;5087822;28;20288;-65
2022/03/02 10:50:30;;;;;;;11.77;8.65;;;;;;;10.77;28.35;99741.59;5087767;28;20044;-65
2022/03/02 10:53:05;;;;;;;10.27;8.13;;;;;;;10.77;28.17;99736.28;5087705;28;20041;-66
2022/03/02 10:55:37;;;;;;;12.88;8.88;;;;;;;11.23;29.00;99779.91;5087803;28;20082;-65
2022/03/02 10:58:14;;;;;;;11.38;7.90;;;;;;;11.29;27.35;99761.97;5087611;28;20087;-66
2022/03/02 11:00:48;;;;;;;12.50;8.07;;;;;;;10.73;27.79;99686.13;5087849;28;20102;-66
2022/03/02 11:03:21;;;;;;;10.43;8.50;;;;;;;11.28;28.20;99754.94;5086292;28;20312;-66
2022/03/02 11:06:00;;;;;;;13.10;9.07;;;;;;;11.12;28.31;99761.03;5108340;28;20371;-65
2022/03/02 11:08:35;;;;;;;12.45;9.57;;;;;;;11.09;28.55;99763.00;5108061;28;20040;-65
2022/03/02 11:11:09;;;;;;;12.98;7.97;;;;;;;10.94;28.99;99763.75;5107529;28;20287;-65
2022/03/02 11:13:43;;;;;;;13.80;8.97;;;;;;;10.99;27.99;99751.97;5107585;28;20043;-65
2022/03/02 11:16:21;;;;;;;11.88;8.98;;;;;;;10.83;27.57;99724.53;5107668;28;20066;-65
2022/03/02 11:18:53;;;;;;;13.25;8.57;;;;;;;10.83;28.92;99759.00;5107517;28;20048;-65
2022/03/02 11:21:31;;;;;;;15.52;10.43;;;;;;;10.86;28.18;99698.72;5107003;28;20092;-65
2022/03/02 11:24:05;;;;;;;15.10;9.30;;;;;;;11.21;28.40;99742.00;5107514;28;20193;-65
2022/03/02 11:26:39;;;;;;;13.20;10.27;;;;;;;10.95;28.42;99684.13;5107725;28;20036;-65
2022/03/02 11:29:13;;;;;;;12.68;8.45;;;;;;;11.33;28.30;99731.69;5107528;28;20052;-66
2022/03/02 11:31:48;;;;;;;10.90;8.60;;;;;;;11.27;27.86;99724.03;5107389;28;20265;-65
2022/03/02 11:34:23;;;;;;;;;;;;;;;11.16;26.89;99724.59;5107752;28;20048;-65
2022/03/02 11:36:59;;;;;;;13.18;8.77;;;;;;;11.04;27.42;99712.81;5107307;28;19915;-66
2022/03/02 11:39:33;;;;;;;14.75;9.05;;;;;;;11.21;27.42;99739.34;5107227;28;20085;-67
2022/03/02 11:42:07;;;;;;;13.68;9.75;;;;;;;11.17;27.53;99707.75;5107470;28;20292;-67
2022/03/02 11:44:41;;;;;;;10.85;8.18;;;;;;;11.32;27.63;99703.44;5107168;28;20044;-66
2022/03/02 11:47:16;;;;;;;10.27;8.52;;;;;;;11.23;26.32;99695.00;5106978;28;20330;-66
2022/03/02 11:49:50;;;;;;;11.48;8.77;;;;;;;11.19;27.04;99688.16;5106918;28;20040;-66
2022/03/02 11:52:26;;;;;;;11.32;8.10;;;;;;;11.39;26.99;99680.94;5089002;28;20082;-66